createdAt,value
2018-12-19T00:01:42.668Z,4.70
2018-12-19T00:04:10.919Z,4.60
2018-12-19T00:06:39.464Z,4.60
2018-12-19T00:09:08.642Z,4.60
2018-12-19T00:11:36.903Z,4.60
2018-12-19T00:14:05.180Z,4.60
2018-12-19T00:16:33.433Z,4.50
2018-12-19T00:19:01.719Z,4.50
2018-12-19T00:21:29.995Z,4.50
2018-12-19T00:23:58.251Z,4.50
2018-12-19T00:26:26.502Z,4.50
2018-12-19T00:28:55.456Z,4.50
2018-12-19T00:31:23.707Z,4.50
2018-12-19T00:33:51.975Z,4.50
2018-12-19T00:36:20.258Z,4.50
2018-12-19T00:38:48.514Z,4.50
2018-12-19T00:41:16.767Z,4.50
2018-12-19T00:43:45.041Z,4.50
2018-12-19T00:46:13.297Z,4.50
2018-12-19T00:48:41.547Z,4.40
2018-12-19T00:51:10.186Z,4.40
2018-12-19T00:53:39.495Z,4.40
2018-12-19T00:56:07.758Z,4.40
2018-12-19T00:58:36.026Z,4.40
2018-12-19T01:01:04.473Z,4.40
2018-12-19T01:03:32.705Z,4.40
2018-12-19T01:06:01.017Z,4.40
2018-12-19T01:08:29.266Z,4.40
2018-12-19T01:10:57.523Z,4.30
2018-12-19T01:13:25.994Z,4.30
2018-12-19T01:15:54.252Z,4.40
2018-12-19T01:18:22.507Z,4.30
2018-12-19T01:20:50.800Z,4.30
2018-12-19T01:23:19.054Z,4.30
2018-12-19T01:25:47.326Z,4.30
2018-12-19T01:28:15.610Z,4.30
2018-12-19T01:30:45.495Z,4.30
2018-12-19T01:33:13.749Z,4.30
2018-12-19T01:35:42.381Z,4.30
2018-12-19T01:38:10.618Z,4.40
2018-12-19T01:40:38.874Z,4.40
2018-12-19T01:43:07.171Z,4.40
2018-12-19T01:45:35.427Z,4.40
2018-12-19T01:48:04.150Z,4.40
2018-12-19T01:50:32.427Z,4.40
2018-12-19T01:53:00.678Z,4.40
2018-12-19T01:55:28.938Z,4.50
2018-12-19T01:57:57.441Z,4.50
2018-12-19T02:00:27.664Z,4.50
2018-12-19T02:02:55.922Z,4.50
2018-12-19T02:05:24.195Z,4.40
2018-12-19T02:07:52.454Z,4.40
2018-12-19T02:10:20.702Z,4.40
2018-12-19T02:12:48.974Z,4.40
2018-12-19T02:15:17.231Z,4.40
2018-12-19T02:17:45.483Z,4.50
2018-12-19T02:20:14.088Z,4.40
2018-12-19T02:22:42.340Z,4.50
2018-12-19T02:25:10.594Z,4.50
2018-12-19T02:27:38.971Z,4.50
2018-12-19T02:30:08.046Z,4.50
2018-12-19T02:32:36.627Z,4.50
2018-12-19T02:35:05.056Z,4.50
2018-12-19T02:37:33.311Z,4.50
2018-12-19T02:40:01.558Z,4.50
2018-12-19T02:42:30.118Z,4.60
2018-12-19T02:44:58.369Z,4.60
2018-12-19T02:47:26.619Z,4.60
2018-12-19T02:49:54.902Z,4.60
2018-12-19T02:52:23.159Z,4.60
2018-12-19T02:54:51.414Z,4.60
2018-12-19T02:57:19.695Z,4.70
2018-12-19T02:59:48.092Z,4.70
2018-12-19T03:02:16.357Z,4.70
2018-12-19T03:04:44.813Z,4.70
2018-12-19T03:07:13.068Z,4.70
2018-12-19T03:09:43.125Z,4.70
2018-12-19T03:12:11.841Z,4.70
2018-12-19T03:14:40.099Z,4.70
2018-12-19T03:17:08.347Z,4.80
2018-12-19T03:19:36.626Z,4.80
2018-12-19T03:22:04.967Z,4.90
2018-12-19T03:24:33.223Z,4.90
2018-12-19T03:27:01.865Z,5.00
2018-12-19T03:29:30.118Z,5.00
2018-12-19T03:31:58.379Z,4.90
2018-12-19T03:34:26.974Z,5.00
2018-12-19T03:36:55.235Z,4.90
2018-12-19T03:39:23.501Z,5.00
2018-12-19T03:41:51.783Z,5.00
2018-12-19T03:44:20.039Z,4.90
2018-12-19T03:46:48.298Z,4.90
2018-12-19T03:49:17.417Z,4.80
2018-12-19T03:51:46.030Z,4.80
2018-12-19T03:54:14.359Z,4.80
2018-12-19T03:56:43.418Z,4.90
2018-12-19T03:59:11.671Z,4.90
2018-12-19T04:01:39.999Z,4.80
2018-12-19T04:04:08.273Z,4.80
2018-12-19T04:06:36.537Z,4.80
2018-12-19T04:09:06.336Z,4.90
2018-12-19T04:11:34.834Z,4.90
2018-12-19T04:14:03.187Z,4.90
2018-12-19T04:16:31.439Z,4.90
2018-12-19T04:18:59.714Z,4.90
2018-12-19T04:21:27.974Z,4.90
2018-12-19T04:23:56.219Z,5.00
2018-12-19T04:26:24.506Z,5.00
2018-12-19T04:28:52.769Z,5.00
2018-12-19T04:31:21.014Z,5.00
2018-12-19T04:33:49.749Z,5.00
2018-12-19T04:36:18.288Z,5.10
2018-12-19T04:38:46.814Z,5.10
2018-12-19T04:41:15.089Z,5.10
2018-12-19T04:43:43.341Z,5.10
2018-12-19T04:46:11.621Z,5.10
2018-12-19T04:48:39.887Z,5.10
2018-12-19T04:51:08.245Z,5.10
2018-12-19T04:53:36.506Z,5.10
2018-12-19T04:56:05.141Z,5.10
2018-12-19T04:58:33.397Z,5.10
2018-12-19T05:01:01.652Z,5.10
2018-12-19T05:03:29.940Z,5.10
2018-12-19T05:05:58.191Z,5.10
2018-12-19T05:08:26.446Z,5.10
2018-12-19T05:10:54.759Z,5.10
2018-12-19T05:13:23.016Z,5.10
2018-12-19T05:15:51.270Z,5.10
2018-12-19T05:18:19.853Z,5.00
2018-12-19T05:20:48.120Z,5.00
2018-12-19T05:23:20.235Z,5.10
2018-12-19T05:25:48.494Z,5.00
2018-12-19T05:28:16.756Z,5.00
2018-12-19T05:30:45.049Z,5.00
2018-12-19T05:33:13.304Z,4.90
2018-12-19T05:35:41.567Z,4.90
2018-12-19T05:38:10.519Z,5.00
2018-12-19T05:40:38.781Z,5.00
2018-12-19T05:43:07.035Z,5.00
2018-12-19T05:45:35.315Z,5.00
2018-12-19T05:48:03.586Z,5.00
2018-12-19T05:50:31.914Z,5.00
2018-12-19T05:53:00.194Z,4.90
2018-12-19T05:55:28.970Z,4.90
2018-12-19T05:57:57.286Z,4.90
2018-12-19T06:00:25.659Z,4.90
2018-12-19T06:02:53.910Z,5.00
2018-12-19T06:05:22.174Z,5.00
2018-12-19T06:07:51.695Z,5.00
2018-12-19T06:10:26.023Z,5.00
2018-12-19T06:12:50.194Z,5.00
2018-12-19T06:15:18.574Z,5.00
2018-12-19T06:17:46.909Z,5.00
2018-12-19T06:20:15.177Z,5.00
2018-12-19T06:22:43.859Z,5.00
2018-12-19T06:25:12.132Z,5.00
2018-12-19T06:27:40.395Z,5.10
2018-12-19T06:30:08.743Z,5.10
2018-12-19T06:32:37.494Z,5.10
2018-12-19T06:35:05.826Z,5.10
2018-12-19T06:37:34.102Z,5.20
2018-12-19T06:40:05.022Z,5.20
2018-12-19T06:42:33.274Z,5.20
2018-12-19T06:45:01.725Z,5.10
2018-12-19T06:47:29.978Z,5.10
2018-12-19T06:49:58.234Z,5.10
2018-12-19T06:52:26.519Z,5.10
2018-12-19T06:54:54.779Z,5.10
2018-12-19T06:57:23.030Z,5.20
2018-12-19T06:59:51.322Z,5.20
2018-12-19T07:02:19.737Z,5.20
2018-12-19T07:04:48.164Z,5.20
2018-12-19T07:07:16.848Z,5.20
2018-12-19T07:09:45.096Z,5.20
2018-12-19T07:12:13.359Z,5.30
2018-12-19T07:14:41.710Z,5.30
2018-12-19T07:17:09.958Z,5.30
2018-12-19T07:19:38.213Z,5.30
2018-12-19T07:22:06.490Z,5.30
2018-12-19T07:24:34.831Z,5.30
2018-12-19T07:27:03.091Z,5.30
2018-12-19T07:29:31.644Z,5.40
2018-12-19T07:31:59.894Z,5.40
2018-12-19T07:34:28.142Z,5.50
2018-12-19T07:36:56.420Z,5.50
2018-12-19T07:39:24.674Z,5.50
2018-12-19T07:41:53.167Z,5.50
2018-12-19T07:44:21.450Z,5.50
2018-12-19T07:46:49.730Z,5.50
2018-12-19T07:49:17.991Z,5.60
2018-12-19T07:51:46.490Z,5.60
2018-12-19T07:54:14.782Z,5.60
2018-12-19T07:56:43.034Z,5.60
2018-12-19T07:59:11.387Z,5.60
2018-12-19T08:01:39.755Z,5.60
2018-12-19T08:04:08.050Z,5.60
2018-12-19T08:06:36.327Z,5.60
2018-12-19T08:09:07.455Z,5.70
2018-12-19T08:11:35.975Z,5.70
2018-12-19T08:14:04.430Z,5.70
2018-12-19T08:16:32.692Z,5.70
2018-12-19T08:19:00.998Z,5.70
2018-12-19T08:21:29.268Z,5.70
2018-12-19T08:23:57.532Z,5.80
2018-12-19T08:26:25.782Z,5.70
2018-12-19T08:28:54.065Z,5.70
2018-12-19T08:31:22.317Z,5.80
2018-12-19T08:33:50.577Z,5.80
2018-12-19T08:36:19.030Z,5.80
2018-12-19T08:38:47.290Z,5.80
2018-12-19T08:41:15.563Z,5.80
2018-12-19T08:43:43.991Z,5.80
2018-12-19T08:46:14.710Z,5.90
2018-12-19T08:48:42.506Z,5.90
2018-12-19T08:51:10.799Z,5.90
2018-12-19T08:53:39.138Z,5.90
2018-12-19T08:56:07.396Z,5.90
2018-12-19T08:58:36.060Z,5.90
2018-12-19T09:01:04.393Z,6.00
2018-12-19T09:03:32.688Z,6.00
2018-12-19T09:06:09.417Z,6.00
2018-12-19T09:08:38.661Z,6.00
2018-12-19T09:11:06.923Z,6.00
2018-12-19T09:13:35.546Z,6.00
2018-12-19T09:16:03.975Z,6.00
2018-12-19T09:18:33.454Z,6.00
2018-12-19T09:21:01.829Z,6.10
2018-12-19T09:23:30.124Z,6.10
2018-12-19T09:25:58.379Z,6.00
2018-12-19T09:28:27.006Z,6.00
2018-12-19T09:30:55.259Z,6.00
2018-12-19T09:33:27.404Z,6.10
2018-12-19T09:35:53.833Z,6.10
2018-12-19T09:38:22.082Z,6.10
2018-12-19T09:40:50.407Z,6.10
2018-12-19T09:43:19.055Z,6.10
2018-12-19T09:45:47.510Z,6.10
2018-12-19T09:48:15.758Z,6.20
2018-12-19T09:50:44.039Z,6.20
2018-12-19T09:53:12.467Z,6.20
2018-12-19T09:55:40.806Z,6.20
2018-12-19T09:58:09.090Z,6.20
2018-12-19T10:00:37.352Z,6.20
2018-12-19T10:03:05.601Z,6.30
2018-12-19T10:05:34.306Z,6.30
2018-12-19T10:08:02.563Z,6.30
2018-12-19T10:10:30.811Z,6.30
2018-12-19T10:12:59.091Z,6.30
2018-12-19T10:15:27.358Z,6.40
2018-12-19T10:17:55.606Z,6.40
2018-12-19T10:20:23.899Z,6.40
2018-12-19T10:22:54.149Z,6.30
2018-12-19T10:25:23.063Z,6.30
2018-12-19T10:27:51.621Z,6.40
2018-12-19T10:30:19.875Z,6.30
2018-12-19T10:32:50.111Z,6.40
2018-12-19T10:35:18.387Z,6.50
2018-12-19T10:37:46.818Z,6.50
2018-12-19T10:40:15.075Z,6.50
2018-12-19T10:42:43.360Z,6.60
2018-12-19T10:45:11.609Z,6.60
2018-12-19T10:47:40.188Z,6.50
2018-12-19T10:50:08.639Z,6.50
2018-12-19T10:52:36.891Z,6.50
2018-12-19T10:55:05.739Z,6.50
2018-12-19T10:57:34.191Z,6.50
2018-12-19T11:00:02.726Z,6.50
2018-12-19T11:02:30.954Z,6.50
2018-12-19T11:04:59.226Z,6.50
2018-12-19T11:07:27.479Z,6.40
2018-12-19T11:09:55.746Z,6.40
2018-12-19T11:12:24.534Z,6.50
2018-12-19T11:14:52.800Z,6.50
2018-12-19T11:17:21.052Z,6.50
2018-12-19T11:19:49.331Z,6.60
2018-12-19T11:22:17.629Z,6.60
2018-12-19T11:24:45.866Z,6.60
2018-12-19T11:27:14.155Z,6.70
2018-12-19T11:29:42.411Z,6.70
2018-12-19T11:32:10.663Z,6.80
2018-12-19T11:34:39.158Z,6.80
2018-12-19T11:37:07.414Z,6.80
2018-12-19T11:39:35.667Z,6.80
2018-12-19T11:42:03.943Z,6.80
2018-12-19T11:44:32.207Z,6.70
2018-12-19T11:47:00.459Z,6.70
2018-12-19T11:49:28.935Z,6.80
2018-12-19T11:51:57.191Z,6.80
2018-12-19T11:54:25.550Z,6.70
2018-12-19T11:56:54.286Z,6.70
2018-12-19T11:59:22.534Z,6.60
2018-12-19T12:01:50.787Z,6.60
2018-12-19T12:04:19.191Z,6.60
2018-12-19T12:06:48.050Z,6.60
2018-12-19T12:09:16.298Z,6.60
2018-12-19T12:11:45.787Z,6.70
2018-12-19T12:14:14.241Z,6.80
2018-12-19T12:16:42.502Z,6.80
2018-12-19T12:19:11.080Z,6.80
2018-12-19T12:21:39.361Z,6.70
2018-12-19T12:24:07.594Z,6.70
2018-12-19T12:26:35.896Z,6.80
2018-12-19T12:29:04.162Z,6.80
2018-12-19T12:31:32.417Z,6.70
2018-12-19T12:34:01.907Z,6.70
2018-12-19T12:36:30.429Z,6.80
2018-12-19T12:38:58.663Z,6.90
2018-12-19T12:41:28.918Z,6.90
2018-12-19T12:43:57.363Z,7.00
2018-12-19T12:46:25.629Z,7.00
2018-12-19T12:48:54.058Z,7.00
2018-12-19T12:51:22.620Z,7.00
2018-12-19T12:53:50.880Z,7.00
2018-12-19T12:56:19.163Z,6.90
2018-12-19T12:58:47.512Z,6.90
2018-12-19T13:01:15.771Z,6.90
2018-12-19T13:03:44.456Z,6.90
2018-12-19T13:06:12.734Z,6.80
2018-12-19T13:08:40.982Z,6.80
2018-12-19T13:11:09.282Z,6.90
2018-12-19T13:13:37.669Z,6.90
2018-12-19T13:16:05.891Z,6.90
2018-12-19T13:18:34.183Z,6.90
2018-12-19T13:21:02.448Z,6.90
2018-12-19T13:23:30.876Z,6.90
2018-12-19T13:25:59.243Z,6.90
2018-12-19T13:28:27.512Z,7.00
2018-12-19T13:30:55.893Z,7.00
2018-12-19T13:33:24.150Z,7.00
2018-12-19T13:35:52.423Z,7.00
2018-12-19T13:38:20.845Z,7.00
2018-12-19T13:40:49.099Z,7.00
2018-12-19T13:43:17.364Z,7.00
2018-12-19T13:45:45.610Z,7.20
2018-12-19T13:48:14.330Z,7.20
2018-12-19T13:50:42.590Z,7.10
2018-12-19T13:53:11.298Z,7.10
2018-12-19T13:55:39.633Z,7.10
2018-12-19T13:58:08.030Z,7.10
2018-12-19T14:00:36.295Z,7.10
2018-12-19T14:03:04.574Z,7.00
2018-12-19T14:05:33.006Z,6.90
2018-12-19T14:08:01.267Z,6.90
2018-12-19T14:10:29.594Z,6.90
2018-12-19T14:12:57.922Z,6.90
2018-12-19T14:15:26.178Z,6.90
2018-12-19T14:17:54.463Z,6.90
2018-12-19T14:20:22.718Z,6.90
2018-12-19T14:22:50.975Z,6.90
2018-12-19T14:25:19.250Z,6.90
2018-12-19T14:27:47.498Z,6.90
2018-12-19T14:30:15.889Z,6.90
2018-12-19T14:32:44.468Z,6.90
2018-12-19T14:35:12.750Z,6.90
2018-12-19T14:37:40.978Z,6.80
2018-12-19T14:40:09.253Z,6.80
2018-12-19T14:42:37.511Z,6.80
2018-12-19T14:45:06.987Z,6.80
2018-12-19T14:47:35.302Z,6.70
2018-12-19T14:50:05.003Z,6.80
2018-12-19T14:52:33.271Z,6.70
2018-12-19T14:55:01.770Z,6.70
2018-12-19T14:57:30.007Z,6.80
2018-12-19T14:59:58.279Z,6.80
2018-12-19T15:02:26.551Z,6.80
2018-12-19T15:04:54.806Z,6.80
2018-12-19T15:07:23.058Z,6.80
2018-12-19T15:09:51.339Z,6.80
2018-12-19T15:12:25.538Z,6.80
2018-12-19T15:14:49.861Z,6.70
2018-12-19T15:17:18.384Z,6.70
2018-12-19T15:19:46.618Z,6.70
2018-12-19T15:22:14.882Z,6.80
2018-12-19T15:24:43.158Z,6.70
2018-12-19T15:27:11.686Z,6.80
2018-12-19T15:29:39.907Z,6.70
2018-12-19T15:32:08.183Z,6.60
2018-12-19T15:34:36.451Z,6.60
2018-12-19T15:37:04.754Z,6.50
2018-12-19T15:39:33.492Z,6.50
2018-12-19T15:42:01.775Z,6.50
2018-12-19T15:44:30.057Z,6.40
2018-12-19T15:46:58.304Z,6.40
2018-12-19T15:49:28.759Z,6.30
2018-12-19T15:51:57.287Z,6.30
2018-12-19T15:54:25.550Z,6.40
2018-12-19T15:56:54.009Z,6.40
2018-12-19T15:59:22.303Z,6.40
2018-12-19T16:01:50.789Z,6.40
2018-12-19T16:04:19.063Z,6.40
2018-12-19T16:06:47.341Z,6.40
2018-12-19T16:09:15.618Z,6.50
2018-12-19T16:11:43.915Z,6.50
2018-12-19T16:14:12.171Z,6.50
2018-12-19T16:16:40.523Z,6.60
2018-12-19T16:19:08.981Z,6.60
2018-12-19T16:21:37.260Z,6.60
2018-12-19T16:24:05.702Z,6.60
2018-12-19T16:26:33.970Z,6.70
2018-12-19T16:29:02.394Z,6.70
2018-12-19T16:31:30.652Z,6.70
2018-12-19T16:33:58.899Z,6.70
2018-12-19T16:36:27.343Z,6.70
2018-12-19T16:38:55.903Z,6.70
2018-12-19T16:41:24.227Z,6.60
2018-12-19T16:43:52.674Z,6.70
2018-12-19T16:46:21.318Z,6.70
2018-12-19T16:48:49.578Z,6.80
2018-12-19T16:51:17.998Z,6.70
2018-12-19T16:53:46.334Z,6.70
2018-12-19T16:56:15.614Z,6.60
2018-12-19T16:58:43.999Z,6.60
2018-12-19T17:01:12.386Z,6.70
2018-12-19T17:03:40.670Z,6.70
2018-12-19T17:06:09.009Z,6.70
2018-12-19T17:08:37.591Z,6.70
2018-12-19T17:11:05.970Z,6.60
2018-12-19T17:13:34.214Z,6.60
2018-12-19T17:16:02.661Z,6.60
2018-12-19T17:18:31.031Z,6.70
2018-12-19T17:20:59.284Z,6.70
2018-12-19T17:23:27.566Z,6.70
2018-12-19T17:25:55.970Z,6.70
2018-12-19T17:28:24.235Z,6.70
2018-12-19T17:30:52.592Z,6.70
2018-12-19T17:33:20.827Z,6.70
2018-12-19T17:35:50.291Z,6.70
2018-12-19T17:38:18.573Z,6.70
2018-12-19T17:40:46.930Z,6.70
2018-12-19T17:43:16.350Z,6.80
2018-12-19T17:45:45.066Z,6.80
2018-12-19T17:48:13.325Z,6.80
2018-12-19T17:50:41.575Z,6.70
2018-12-19T17:53:09.906Z,6.70
2018-12-19T17:55:39.171Z,6.70
2018-12-19T17:58:07.891Z,6.70
2018-12-19T18:00:36.163Z,6.70
2018-12-19T18:03:04.615Z,6.60
2018-12-19T18:05:32.982Z,6.60
2018-12-19T18:08:01.270Z,6.70
2018-12-19T18:10:29.738Z,6.70
2018-12-19T18:12:58.003Z,6.70
2018-12-19T18:15:26.343Z,6.70
2018-12-19T18:17:54.637Z,6.60
2018-12-19T18:20:22.903Z,6.60
2018-12-19T18:22:51.363Z,6.70
2018-12-19T18:25:19.645Z,6.70
2018-12-19T18:27:47.899Z,6.70
2018-12-19T18:30:16.175Z,6.70
2018-12-19T18:32:44.422Z,6.70
2018-12-19T18:35:16.637Z,6.80
2018-12-19T18:37:45.204Z,6.70
2018-12-19T18:40:14.636Z,6.80
2018-12-19T18:42:42.920Z,6.80
2018-12-19T18:45:12.086Z,6.80
2018-12-19T18:47:40.548Z,6.80
2018-12-19T18:50:08.999Z,6.90
2018-12-19T18:52:37.518Z,6.90
2018-12-19T18:55:06.831Z,7.00
2018-12-19T18:57:35.172Z,7.00
2018-12-19T19:00:06.654Z,7.00
2018-12-19T19:02:34.964Z,7.00
2018-12-19T19:05:03.482Z,7.00
2018-12-19T19:07:32.037Z,6.90
2018-12-19T19:10:00.395Z,7.00
2018-12-19T19:12:28.871Z,7.00
2018-12-19T19:14:59.331Z,7.00
2018-12-19T19:17:27.586Z,7.00
2018-12-19T19:19:57.882Z,7.00
2018-12-19T19:22:26.346Z,7.10
2018-12-19T19:24:55.702Z,7.00
2018-12-19T19:27:24.889Z,7.00
2018-12-19T19:29:53.171Z,7.00
2018-12-19T19:32:22.551Z,7.00
2018-12-19T19:34:50.816Z,7.00
2018-12-19T19:37:19.093Z,7.00
2018-12-19T19:39:47.339Z,7.00
2018-12-19T19:42:15.596Z,7.00
2018-12-19T19:44:44.844Z,7.10
2018-12-19T19:47:13.094Z,7.10
2018-12-19T19:49:41.347Z,7.00
2018-12-19T19:52:09.622Z,7.00
2018-12-19T19:54:37.892Z,6.90
2018-12-19T19:57:06.151Z,6.90
2018-12-19T19:59:34.427Z,6.90
2018-12-19T20:02:03.134Z,6.90
2018-12-19T20:04:31.395Z,6.90
2018-12-19T20:07:01.181Z,6.90
2018-12-19T20:09:29.515Z,7.00
2018-12-19T20:11:58.766Z,7.00
2018-12-19T20:14:27.131Z,6.90
2018-12-19T20:17:00.220Z,6.90
2018-12-19T20:19:28.952Z,6.90
2018-12-19T20:21:57.212Z,6.90
2018-12-19T20:24:25.465Z,6.90
2018-12-19T20:26:54.174Z,6.90
2018-12-19T20:29:22.402Z,7.00
2018-12-19T20:31:50.662Z,7.00
2018-12-19T20:34:18.935Z,7.00
2018-12-19T20:36:47.198Z,7.00
2018-12-19T20:39:15.508Z,7.10
2018-12-19T20:41:43.775Z,7.10
2018-12-19T20:44:12.039Z,7.10
2018-12-19T20:46:40.306Z,7.10
2018-12-19T20:49:08.843Z,7.10
2018-12-19T20:51:39.301Z,7.10
2018-12-19T20:54:07.630Z,7.20
2018-12-19T20:56:37.450Z,7.20
2018-12-19T20:59:06.598Z,7.20
2018-12-19T21:01:36.039Z,7.20
2018-12-19T21:04:05.531Z,7.10
2018-12-19T21:06:33.868Z,7.20
2018-12-19T21:09:02.119Z,7.20
2018-12-19T21:11:30.709Z,7.10
2018-12-19T21:14:01.175Z,7.10
2018-12-19T21:16:35.143Z,7.00
2018-12-19T21:19:03.635Z,7.00
2018-12-19T21:21:31.941Z,7.00
2018-12-19T21:24:00.242Z,7.10
2018-12-19T21:26:28.567Z,7.10
2018-12-19T21:28:56.823Z,7.10
2018-12-19T21:31:25.241Z,7.10
2018-12-19T21:33:53.490Z,7.10
2018-12-19T21:36:21.750Z,7.20
2018-12-19T21:38:50.022Z,7.20
2018-12-19T21:41:20.394Z,7.20
2018-12-19T21:43:53.565Z,7.20
2018-12-19T21:46:22.114Z,7.20
2018-12-19T21:48:50.670Z,7.20
2018-12-19T21:51:19.154Z,7.20
2018-12-19T21:53:47.582Z,7.20
2018-12-19T21:56:15.849Z,7.20
2018-12-19T21:58:44.113Z,7.30
2018-12-19T22:01:12.404Z,7.30
2018-12-19T22:03:40.734Z,7.30
2018-12-19T22:06:11.258Z,7.30
2018-12-19T22:08:39.555Z,7.30
2018-12-19T22:11:07.913Z,7.30
2018-12-19T22:13:36.281Z,7.40
2018-12-19T22:16:04.703Z,7.40
2018-12-19T22:18:38.546Z,7.40
2018-12-19T22:21:06.838Z,7.50
2018-12-19T22:23:35.152Z,7.40
2018-12-19T22:26:03.593Z,7.40
2018-12-19T22:28:31.968Z,7.40
2018-12-19T22:31:00.291Z,7.40
2018-12-19T22:33:28.656Z,7.40
2018-12-19T22:35:57.216Z,7.40
2018-12-19T22:38:25.487Z,7.40
2018-12-19T22:40:53.833Z,7.40
2018-12-19T22:43:22.224Z,7.40
2018-12-19T22:45:50.546Z,7.40
2018-12-19T22:48:18.889Z,7.40
2018-12-19T22:50:47.191Z,7.30
2018-12-19T22:53:15.601Z,7.30
2018-12-19T22:55:44.063Z,7.30
2018-12-19T22:58:12.748Z,7.20
2018-12-19T23:03:48.228Z,7.20
2018-12-19T23:06:16.578Z,7.30
2018-12-19T23:08:44.909Z,7.30
2018-12-19T23:11:13.203Z,7.30
2018-12-19T23:13:41.459Z,7.30
2018-12-19T23:16:09.732Z,7.40
2018-12-19T23:18:38.689Z,7.40
2018-12-19T23:21:07.014Z,7.40
2018-12-19T23:23:35.267Z,7.40
2018-12-19T23:26:04.120Z,7.50
2018-12-19T23:28:32.433Z,7.50
2018-12-19T23:31:00.754Z,7.50
2018-12-19T23:33:29.044Z,7.50
2018-12-19T23:35:57.302Z,7.50
2018-12-19T23:38:25.821Z,7.50
2018-12-19T23:40:54.480Z,7.50
2018-12-19T23:43:22.763Z,7.40
2018-12-19T23:45:51.100Z,7.40
2018-12-19T23:48:19.471Z,7.50
2018-12-19T23:50:47.699Z,7.50
2018-12-19T23:53:16.116Z,7.40
2018-12-19T23:55:44.537Z,7.40
2018-12-19T23:58:13.824Z,7.50
